Time;durP1;ratioP1;P1;durP2;ratioP2;P2;SDS_P1;SDS_P2;PMS_P1;PMS_P2;Temp;Humidity;BMP_temperature;BMP_pressure;BME280_temperature;BME280_humidity;BME280_pressure;Samples;Min_cycle;Max_cycle;Signal;HPM_P1;HPM_P2
2022/04/21 00:00:35;;;;;;;;;;;13.00;62.70;;;;;;5062159;28;20281;-70
2022/04/21 00:03:01;;;;;;;;;;;12.90;62.80;;;;;;5062255;28;20434;-69
2022/04/21 00:05:28;;;;;;;;;;;12.90;62.80;;;;;;5066833;28;19912;-69
2022/04/21 00:07:53;;;;;;;;;;;12.90;62.80;;;;;;5068736;28;19920;-69
2022/04/21 00:10:20;;;;;;;;;;;12.80;62.80;;;;;;5063068;28;20419;-69
2022/04/21 00:12:45;;;;;;;;;;;12.80;62.90;;;;;;5063405;28;19913;-69
2022/04/21 00:15:11;;;;;;;;;;;12.80;63.00;;;;;;5063015;28;19917;-69
2022/04/21 00:17:37;;;;;;;;;;;12.70;63.00;;;;;;5063161;28;19954;-69
2022/04/21 00:20:03;;;;;;;;;;;12.70;63.00;;;;;;5041525;28;19920;-69
2022/04/21 00:25:13;;;;;;;;;;;12.60;63.10;;;;;;5063564;28;19970;-69
2022/04/21 00:27:39;;;;;;;;;;;12.60;63.20;;;;;;5063073;28;19908;-69
2022/04/21 00:30:06;;;;;;;;;;;12.60;63.90;;;;;;5063127;28;19913;-70
2022/04/21 00:32:33;;;;;;;;;;;12.60;63.30;;;;;;5044010;28;20300;-69
2022/04/21 00:34:58;;;;;;;;;;;12.50;63.20;;;;;;5063311;28;19917;-69
2022/04/21 00:37:24;;;;;;;;;;;12.50;63.40;;;;;;5071631;28;19919;-70
2022/04/21 00:39:50;;;;;;;;;;;12.50;63.30;;;;;;5062309;28;19920;-69
2022/04/21 00:42:15;;;;;;;;;;;12.40;63.30;;;;;;5063061;28;19916;-70
2022/04/21 00:44:41;;;;;;;;;;;12.40;63.60;;;;;;5062724;28;19913;-70
2022/04/21 00:47:07;;;;;;;;;;;12.40;63.30;;;;;;5062828;28;20011;-69
2022/04/21 00:49:33;;;;;;;;;;;12.40;63.50;;;;;;5049637;28;19970;-70
2022/04/21 00:52:00;;;;;;;;;;;12.30;63.70;;;;;;5063189;28;19930;-69
2022/04/21 00:54:29;;;;;;;;;;;12.30;63.80;;;;;;5062829;28;19922;-70
2022/04/21 00:56:54;;;;;;;;;;;12.30;63.70;;;;;;5062676;28;19916;-69
2022/04/21 00:59:20;;;;;;;;;;;12.20;63.60;;;;;;5063209;28;19912;-70
2022/04/21 01:04:30;;;;;;;;;;;12.20;63.80;;;;;;5063127;28;19978;-69
2022/04/21 01:06:57;;;;;;;;;;;12.20;64.00;;;;;;5070579;28;20357;-69
2022/04/21 01:09:22;;;;;;;;;;;12.10;63.80;;;;;;5062977;28;20028;-69
2022/04/21 01:11:49;;;;;;;;;;;12.10;64.00;;;;;;5062654;28;19999;-69
2022/04/21 01:14:15;;;;;;;;;;;12.10;63.90;;;;;;5063003;28;19919;-70
2022/04/21 01:16:40;;;;;;;;;;;12.10;64.10;;;;;;5059894;28;19913;-69
2022/04/21 01:19:06;;;;;;;;;;;12.00;64.00;;;;;;5062603;28;19977;-69
2022/04/21 01:21:31;;;;;;;;;;;12.00;64.10;;;;;;5063158;28;19935;-70
2022/04/21 01:23:57;;;;;;;;;;;12.00;64.00;;;;;;5062410;28;19916;-69
2022/04/21 01:26:22;;;;;;;;;;;12.00;64.10;;;;;;5062835;28;20030;-69
2022/04/21 01:28:49;;;;;;;;;;;11.90;64.20;;;;;;5062572;28;20022;-70
2022/04/21 01:31:24;;;;;;;;;;;11.90;64.20;;;;;;5062911;28;19913;-69
2022/04/21 01:33:50;;;;;;;;;;;11.90;64.10;;;;;;5044148;28;20358;-69
2022/04/21 01:36:16;;;;;;;;;;;11.90;64.30;;;;;;5065845;28;19931;-69
2022/04/21 01:41:25;;;;;;;;;;;11.80;64.30;;;;;;5062084;28;19991;-70
2022/04/21 01:43:51;;;;;;;;;;;11.80;64.40;;;;;;5062816;28;20373;-70
2022/04/21 01:46:16;;;;;;;;;;;11.80;64.40;;;;;;5062003;28;19913;-70
2022/04/21 01:48:42;;;;;;;;;;;11.80;64.50;;;;;;5062553;28;19960;-70
2022/04/21 01:51:08;;;;;;;;;;;11.70;64.30;;;;;;5043898;28;19923;-69
2022/04/21 01:53:33;;;;;;;;;;;11.70;64.50;;;;;;5062581;28;19908;-69
2022/04/21 01:55:59;;;;;;;;;;;11.70;64.60;;;;;;5062817;28;19916;-69
2022/04/21 01:58:24;;;;;;;;;;;11.70;64.60;;;;;;5066132;28;19916;-70
2022/04/21 02:00:50;;;;;;;;;;;11.70;64.70;;;;;;5066010;28;19943;-70
2022/04/21 02:03:16;;;;;;;;;;;11.60;64.70;;;;;;5081474;28;19909;-69
2022/04/21 02:05:41;;;;;;;;;;;11.60;64.70;;;;;;5071421;28;20618;-69
2022/04/21 02:08:07;;;;;;;;;;;11.60;64.80;;;;;;5065826;28;19919;-70
2022/04/21 02:10:33;;;;;;;;;;;11.50;64.60;;;;;;5066264;28;19912;-69
2022/04/21 02:12:58;;;;;;;;;;;11.50;64.80;;;;;;5065587;28;19923;-70
2022/04/21 02:15:24;;;;;;;;;;;11.50;64.80;;;;;;5065621;28;20488;-70
2022/04/21 02:17:50;;;;;;;;;;;11.50;64.90;;;;;;5065626;28;19912;-70
2022/04/21 02:20:16;;;;;;;;;;;11.50;64.90;;;;;;5049192;28;19909;-70
2022/04/21 02:22:45;;;;;;;;;;;11.50;65.00;;;;;;5065970;28;19963;-70
2022/04/21 02:25:11;;;;;;;;;;;11.40;65.00;;;;;;5065207;28;19912;-69
2022/04/21 02:27:37;;;;;;;;;;;11.40;65.00;;;;;;5065741;28;19978;-69
2022/04/21 02:30:07;;;;;;;;;;;11.40;65.00;;;;;;5062847;28;19969;-69
2022/04/21 02:32:32;;;;;;;;;;;11.40;65.20;;;;;;5064213;28;19956;-70
2022/04/21 02:34:58;;;;;;;;;;;11.30;65.20;;;;;;5052977;28;20019;-69
2022/04/21 02:37:23;;;;;;;;;;;11.30;65.20;;;;;;5070735;28;19986;-70
2022/04/21 02:39:49;;;;;;;;;;;11.30;65.30;;;;;;5064877;28;19919;-69
2022/04/21 02:42:15;;;;;;;;;;;11.30;65.30;;;;;;5064931;28;19916;-69
2022/04/21 02:44:41;;;;;;;;;;;11.30;65.30;;;;;;5065499;28;20010;-70
2022/04/21 02:47:10;;;;;;;;;;;11.20;65.40;;;;;;5064510;28;19912;-70
2022/04/21 02:49:36;;;;;;;;;;;11.20;65.40;;;;;;5065205;28;19917;-70
2022/04/21 02:52:04;;;;;;;;;;;11.20;65.40;;;;;;5064881;28;20436;-70
2022/04/21 02:57:22;;;;;;;;;;;11.20;65.50;;;;;;5064290;28;19966;-70
2022/04/21 02:59:49;;;;;;;;;;;11.10;65.40;;;;;;5064681;28;19917;-70
2022/04/21 03:02:14;;;;;;;;;;;11.10;65.60;;;;;;5058964;28;19919;-70
2022/04/21 03:04:40;;;;;;;;;;;11.10;65.70;;;;;;5072484;28;19908;-70
2022/04/21 03:07:05;;;;;;;;;;;11.10;66.20;;;;;;5068542;28;19916;-70
2022/04/21 03:09:32;;;;;;;;;;;11.10;65.70;;;;;;5064213;28;20379;-70
2022/04/21 03:12:01;;;;;;;;;;;11.00;65.70;;;;;;5064639;28;19916;-70
2022/04/21 03:14:27;;;;;;;;;;;11.00;65.80;;;;;;5064421;28;19912;-69
2022/04/21 03:16:52;;;;;;;;;;;11.00;65.70;;;;;;5064404;28;19912;-70
2022/04/21 03:19:18;;;;;;;;;;;11.00;65.70;;;;;;5064522;28;20018;-70
2022/04/21 03:24:29;;;;;;;;;;;11.00;65.90;;;;;;5049105;28;19938;-70
2022/04/21 03:26:55;;;;;;;;;;;10.90;65.90;;;;;;5063799;28;20365;-70
2022/04/21 03:29:21;;;;;;;;;;;10.90;65.90;;;;;;5064026;28;19920;-70
2022/04/21 03:31:48;;;;;;;;;;;10.90;65.90;;;;;;5063133;28;19912;-70
2022/04/21 03:34:14;;;;;;;;;;;10.90;66.00;;;;;;5061619;28;19981;-70
2022/04/21 03:36:49;;;;;;;;;;;10.90;66.00;;;;;;5067380;28;19917;-70
2022/04/21 03:39:16;;;;;;;;;;;10.80;66.00;;;;;;5063674;28;19919;-70
2022/04/21 03:41:41;;;;;;;;;;;10.80;66.00;;;;;;5062888;28;19912;-70
2022/04/21 03:44:07;;;;;;;;;;;10.80;66.10;;;;;;5063775;28;20020;-70
2022/04/21 03:46:33;;;;;;;;;;;10.70;66.00;;;;;;5063942;28;19996;-70
2022/04/21 03:48:59;;;;;;;;;;;10.70;66.00;;;;;;5063793;28;20019;-70
2022/04/21 03:51:25;;;;;;;;;;;10.70;66.10;;;;;;5046021;28;19912;-70
2022/04/21 03:53:51;;;;;;;;;;;10.70;66.10;;;;;;5063452;28;19931;-70
2022/04/21 03:56:16;;;;;;;;;;;10.70;66.20;;;;;;5063417;28;19924;-70
2022/04/21 03:58:42;;;;;;;;;;;10.70;66.20;;;;;;5063585;28;19926;-70
2022/04/21 04:01:07;;;;;;;;;;;10.70;66.20;;;;;;5063709;28;19955;-70
2022/04/21 04:03:33;;;;;;;;;;;10.60;66.30;;;;;;5077325;28;20564;-70
2022/04/21 04:05:59;;;;;;;;;;;10.60;66.30;;;;;;5060563;28;19920;-70
2022/04/21 04:11:10;;;;;;;;;;;10.60;66.30;;;;;;5063600;28;19958;-70
2022/04/21 04:13:35;;;;;;;;;;;10.60;66.40;;;;;;5063816;28;19919;-70
2022/04/21 04:16:01;;;;;;;;;;;10.60;66.30;;;;;;5063171;28;19916;-70
2022/04/21 04:18:26;;;;;;;;;;;10.50;66.40;;;;;;5063337;28;20297;-70
2022/04/21 04:20:52;;;;;;;;;;;10.50;66.50;;;;;;5063320;28;20535;-70
2022/04/21 04:23:18;;;;;;;;;;;10.50;66.40;;;;;;5063286;28;19985;-70
2022/04/21 04:25:44;;;;;;;;;;;10.50;66.40;;;;;;5063306;28;19927;-70
2022/04/21 04:28:09;;;;;;;;;;;10.50;66.50;;;;;;5044179;28;19924;-70
2022/04/21 04:30:38;;;;;;;;;;;10.50;66.70;;;;;;5062321;28;20358;-70
2022/04/21 04:33:04;;;;;;;;;;;10.40;66.60;;;;;;5059740;28;19913;-70
2022/04/21 04:35:29;;;;;;;;;;;10.40;66.50;;;;;;5065327;28;19923;-70
2022/04/21 04:37:55;;;;;;;;;;;10.40;66.60;;;;;;5045088;28;20262;-70
2022/04/21 04:40:21;;;;;;;;;;;10.40;66.60;;;;;;5062771;28;19962;-70
2022/04/21 04:42:46;;;;;;;;;;;10.40;66.80;;;;;;5063480;28;19916;-70
2022/04/21 04:47:56;;;;;;;;;;;10.40;66.70;;;;;;5063295;28;19965;-70
2022/04/21 04:50:22;;;;;;;;;;;10.30;66.70;;;;;;5062778;28;19955;-70
2022/04/21 04:52:47;;;;;;;;;;;10.30;66.70;;;;;;5063286;28;19912;-70
2022/04/21 04:55:13;;;;;;;;;;;10.30;66.70;;;;;;5062510;28;19952;-70
2022/04/21 04:57:39;;;;;;;;;;;10.30;66.70;;;;;;5063391;28;20000;-70
2022/04/21 05:00:05;;;;;;;;;;;10.30;66.70;;;;;;5063145;28;19916;-70
2022/04/21 05:02:31;;;;;;;;;;;10.30;66.70;;;;;;5072019;28;19973;-70
2022/04/21 05:04:56;;;;;;;;;;;10.30;66.70;;;;;;5065280;28;19916;-70
2022/04/21 05:07:23;;;;;;;;;;;10.20;66.60;;;;;;5078080;28;20667;-70
2022/04/21 05:09:49;;;;;;;;;;;10.20;66.60;;;;;;5044977;28;20323;-70
2022/04/21 05:12:14;;;;;;;;;;;10.20;66.60;;;;;;5062583;28;19912;-70
2022/04/21 05:14:40;;;;;;;;;;;10.20;66.70;;;;;;5063212;28;19913;-70
2022/04/21 05:17:05;;;;;;;;;;;10.20;66.70;;;;;;5062646;28;19999;-70
2022/04/21 05:19:31;;;;;;;;;;;10.20;66.70;;;;;;5062642;28;19923;-70
2022/04/21 05:22:00;;;;;;;;;;;10.20;66.70;;;;;;5062743;28;19917;-70
2022/04/21 05:24:26;;;;;;;;;;;10.20;66.70;;;;;;5062197;28;19920;-70
2022/04/21 05:26:51;;;;;;;;;;;10.20;66.60;;;;;;5062936;28;19909;-70
2022/04/21 05:32:02;;;;;;;;;;;10.20;66.60;;;;;;5064167;28;19916;-70
2022/04/21 05:34:29;;;;;;;;;;;10.20;66.60;;;;;;5066003;28;20369;-70
2022/04/21 05:36:54;;;;;;;;;;;10.20;66.60;;;;;;5079406;28;19909;-70
2022/04/21 05:39:21;;;;;;;;;;;10.20;66.50;;;;;;5069514;28;19946;-70
2022/04/21 05:41:47;;;;;;;;;;;10.20;66.60;;;;;;5065400;28;19938;-70
2022/04/21 05:44:13;;;;;;;;;;;10.20;66.60;;;;;;5066352;28;19920;-70
2022/04/21 05:46:38;;;;;;;;;;;10.20;66.40;;;;;;5065257;28;19912;-70
2022/04/21 05:49:04;;;;;;;;;;;10.20;66.40;;;;;;5065636;28;20004;-70
2022/04/21 05:51:30;;;;;;;;;;;10.20;66.40;;;;;;5065004;28;19932;-70
2022/04/21 05:53:57;;;;;;;;;;;10.20;66.40;;;;;;5065562;28;19973;-70
2022/04/21 05:56:22;;;;;;;;;;;10.20;66.20;;;;;;5064394;28;20421;-70
2022/04/21 05:58:48;;;;;;;;;;;10.20;66.20;;;;;;5065481;28;20026;-70
2022/04/21 06:01:13;;;;;;;;;;;10.20;66.20;;;;;;5065568;28;19913;-70
2022/04/21 06:03:39;;;;;;;;;;;10.20;66.90;;;;;;5075264;28;20493;-70
2022/04/21 06:06:06;;;;;;;;;;;10.20;66.00;;;;;;5072200;28;20264;-70
2022/04/21 06:08:32;;;;;;;;;;;10.20;66.00;;;;;;5074496;28;20446;-70
2022/04/21 06:10:57;;;;;;;;;;;10.30;66.00;;;;;;5065218;28;19917;-70
2022/04/21 06:13:23;;;;;;;;;;;10.30;66.00;;;;;;5065197;28;19912;-70
2022/04/21 06:15:49;;;;;;;;;;;10.30;65.60;;;;;;5046835;28;20018;-70
2022/04/21 06:18:14;;;;;;;;;;;10.30;65.80;;;;;;5065178;28;19912;-70
2022/04/21 06:20:40;;;;;;;;;;;10.40;65.60;;;;;;5064968;28;19927;-70
2022/04/21 06:23:06;;;;;;;;;;;10.40;65.50;;;;;;5065368;28;19966;-70
2022/04/21 06:25:31;;;;;;;;;;;10.50;65.50;;;;;;5064509;28;19919;-70
2022/04/21 06:27:57;;;;;;;;;;;10.50;65.40;;;;;;5065087;28;19919;-70
2022/04/21 06:30:23;;;;;;;;;;;10.50;65.30;;;;;;5064560;28;19913;-70
2022/04/21 06:32:49;;;;;;;;;;;10.60;65.30;;;;;;5028391;28;19966;-70
2022/04/21 06:35:15;;;;;;;;;;;10.60;65.20;;;;;;5064904;28;19920;-70
2022/04/21 06:37:42;;;;;;;;;;;10.70;65.20;;;;;;5079318;28;20379;-70
2022/04/21 06:40:08;;;;;;;;;;;10.70;65.20;;;;;;5064325;28;20207;-70
2022/04/21 06:42:35;;;;;;;;;;;10.70;65.10;;;;;;5064676;28;19950;-70
2022/04/21 06:48:04;;;;;;;;;;;10.80;65.10;;;;;;5064334;28;19936;-70
2022/04/21 06:50:30;;;;;;;;;;;10.70;65.00;;;;;;5060107;28;19920;-70
2022/04/21 06:52:55;;;;;;;;;;;10.80;64.90;;;;;;5061383;28;19909;-70
2022/04/21 06:55:21;;;;;;;;;;;10.90;65.00;;;;;;5064063;28;19987;-70
2022/04/21 06:57:46;;;;;;;;;;;10.80;65.00;;;;;;5064224;28;20369;-70
2022/04/21 07:00:12;;;;;;;;;;;10.90;65.00;;;;;;5064332;28;19913;-69
2022/04/21 07:02:38;;;;;;;;;;;10.90;64.90;;;;;;5073106;28;19939;-69
2022/04/21 07:05:11;;;;;;;;;;;10.90;64.70;;;;;;5065046;28;19912;-69
2022/04/21 07:07:37;;;;;;;;;;;10.90;64.90;;;;;;5075195;28;19916;-69
2022/04/21 07:10:02;;;;;;;;;;;10.90;65.00;;;;;;5049921;28;19912;-70
2022/04/21 07:12:31;;;;;;;;;;;11.00;64.80;;;;;;5064202;28;19916;-70
2022/04/21 07:14:57;;;;;;;;;;;11.00;64.70;;;;;;5063464;28;19916;-69
2022/04/21 07:17:23;;;;;;;;;;;11.00;64.60;;;;;;5064403;28;19926;-69
2022/04/21 07:19:49;;;;;;;;;;;11.00;64.60;;;;;;5064014;28;20426;-69
2022/04/21 07:22:14;;;;;;;;;;;11.00;64.40;;;;;;5063828;28;19920;-69
2022/04/21 07:24:40;;;;;;;;;;;11.10;64.40;;;;;;5063414;28;20588;-69
2022/04/21 07:27:05;;;;;;;;;;;11.10;64.50;;;;;;5063809;28;19908;-69
2022/04/21 07:29:31;;;;;;;;;;;11.10;64.40;;;;;;5064045;28;19912;-69
2022/04/21 07:31:56;;;;;;;;;;;11.20;64.40;;;;;;5062803;28;19912;-69
2022/04/21 07:34:23;;;;;;;;;;;11.20;64.40;;;;;;5064255;28;20517;-70
2022/04/21 07:36:49;;;;;;;;;;;11.20;64.40;;;;;;5078912;28;19989;-70
2022/04/21 07:39:14;;;;;;;;;;;11.20;64.40;;;;;;5064935;28;19955;-69
2022/04/21 07:41:40;;;;;;;;;;;11.20;64.40;;;;;;5063441;28;19916;-70
2022/04/21 07:44:05;;;;;;;;;;;11.20;64.40;;;;;;5063417;28;20004;-70
2022/04/21 07:46:32;;;;;;;;;;;11.30;64.40;;;;;;5045726;28;20285;-69
2022/04/21 07:51:42;;;;;;;;;;;11.30;64.30;;;;;;5063762;28;20004;-69
2022/04/21 07:54:07;;;;;;;;;;;11.40;64.10;;;;;;5062706;28;20011;-69
2022/04/21 07:56:33;;;;;;;;;;;11.40;64.10;;;;;;5063341;28;19923;-69
2022/04/21 07:58:58;;;;;;;;;;;11.40;64.00;;;;;;5063038;28;19908;-69
2022/04/21 08:01:24;;;;;;;;;;;11.50;64.00;;;;;;5045270;28;20348;-70
2022/04/21 08:03:49;;;;;;;;;;;11.50;63.90;;;;;;5063243;28;19974;-69
2022/04/21 08:06:15;;;;;;;;;;;11.50;63.80;;;;;;5073244;28;20006;-69
2022/04/21 08:08:40;;;;;;;;;;;11.50;63.80;;;;;;5068019;28;19917;-69
2022/04/21 08:11:07;;;;;;;;;;;11.60;63.80;;;;;;5062801;28;19919;-69
2022/04/21 08:13:33;;;;;;;;;;;11.60;63.70;;;;;;5063260;28;20006;-69
2022/04/21 08:15:58;;;;;;;;;;;11.60;63.50;;;;;;5044455;28;20007;-69
2022/04/21 08:18:24;;;;;;;;;;;11.70;63.50;;;;;;5063119;28;20031;-69
2022/04/21 08:20:53;;;;;;;;;;;11.70;63.50;;;;;;5062906;28;19923;-69
2022/04/21 08:23:19;;;;;;;;;;;11.70;63.40;;;;;;5062643;28;20280;-69
2022/04/21 08:33:57;;;;;;;;;;;11.80;63.30;;;;;;5062764;28;19955;-69
2022/04/21 08:36:22;;;;;;;;;;;11.80;63.10;;;;;;5074387;28;19963;-69
2022/04/21 08:38:47;;;;;;;;;;;11.90;63.20;;;;;;5065705;28;20324;-69
2022/04/21 08:41:17;;;;;;;;;;;12.00;63.00;;;;;;5060907;28;19913;-69
2022/04/21 08:43:45;;;;;;;;;;;12.00;62.80;;;;;;5062310;28;19951;-69
2022/04/21 08:46:12;;;;;;;;;;;12.10;62.60;;;;;;5061787;28;19913;-69
2022/04/21 08:48:38;;;;;;;;;;;12.20;62.50;;;;;;5062121;28;20803;-69
2022/04/21 08:51:07;;;;;;;;;;;12.20;62.50;;;;;;5061871;28;20071;-69
2022/04/21 08:53:33;;;;;;;;;;;12.20;62.60;;;;;;5062155;28;19939;-69
2022/04/21 08:55:59;;;;;;;;;;;12.20;62.60;;;;;;5044149;28;19985;-69
2022/04/21 08:58:25;;;;;;;;;;;12.20;62.50;;;;;;5062023;28;20023;-69
2022/04/21 09:00:53;;;;;;;;;;;12.20;62.50;;;;;;5062812;28;19999;-69
2022/04/21 09:03:19;;;;;;;;;;;12.30;62.50;;;;;;5062582;28;19960;-69
2022/04/21 09:05:45;;;;;;;;;;;12.30;62.40;;;;;;5067928;28;20009;-69
2022/04/21 09:08:25;;;;;;;;;;;12.30;62.40;;;;;;5066394;28;19990;-69
2022/04/21 09:11:09;;;;;;;;;;;12.30;62.30;;;;;;5066529;28;19912;-69
2022/04/21 09:13:36;;;;;;;;;;;12.30;62.20;;;;;;5066519;28;20365;-69
2022/04/21 09:16:05;;;;;;;;;;;12.40;62.30;;;;;;5066317;28;20036;-69
2022/04/21 09:18:37;;;;;;;;;;;12.40;62.20;;;;;;5066573;28;19909;-69
2022/04/21 09:21:07;;;;;;;;;;;12.40;62.10;;;;;;5066237;28;20516;-69
2022/04/21 09:23:33;;;;;;;;;;;12.50;62.10;;;;;;5066509;28;19957;-69
2022/04/21 09:26:05;;;;;;;;;;;12.50;62.20;;;;;;5066077;28;20431;-69
2022/04/21 09:28:31;;;;;;;;;;;12.60;62.00;;;;;;5048284;28;19978;-69
2022/04/21 09:30:58;;;;;;;;;;;12.60;61.90;;;;;;5066322;28;20354;-69
2022/04/21 09:33:28;;;;;;;;;;;12.70;61.90;;;;;;5065234;28;19912;-69
2022/04/21 09:35:55;;;;;;;;;;;12.70;61.80;;;;;;5073487;28;20662;-69
2022/04/21 09:38:21;;;;;;;;;;;12.80;61.80;;;;;;5071407;28;19912;-69
2022/04/21 09:40:47;;;;;;;;;;;12.90;61.70;;;;;;5065775;28;19913;-69
2022/04/21 09:43:13;;;;;;;;;;;13.00;61.50;;;;;;5065944;28;20757;-69
2022/04/21 09:48:24;;;;;;;;;;;13.10;61.30;;;;;;5065534;28;20458;-69
2022/04/21 09:50:51;;;;;;;;;;;13.20;61.10;;;;;;5066046;28;19962;-69
2022/04/21 09:53:19;;;;;;;;;;;13.30;61.10;;;;;;5065586;28;19912;-69
2022/04/21 09:55:45;;;;;;;;;;;13.40;60.90;;;;;;5065734;28;19916;-69
2022/04/21 09:58:12;;;;;;;;;;;13.40;60.90;;;;;;5065757;28;19920;-69
2022/04/21 10:00:38;;;;;;;;;;;13.40;61.00;;;;;;5065173;28;19919;-69
2022/04/21 10:03:05;;;;;;;;;;;13.50;61.00;;;;;;5065696;28;19967;-69
2022/04/21 10:05:31;;;;;;;;;;;13.50;60.90;;;;;;5051806;28;19912;-69
2022/04/21 10:08:00;;;;;;;;;;;13.60;60.90;;;;;;5073882;28;20554;-69
2022/04/21 10:10:27;;;;;;;;;;;13.60;61.00;;;;;;5065360;28;19916;-69
2022/04/21 10:12:56;;;;;;;;;;;13.60;60.80;;;;;;5065291;28;19917;-69
2022/04/21 10:15:23;;;;;;;;;;;13.70;60.90;;;;;;5062058;28;20269;-69
2022/04/21 10:17:49;;;;;;;;;;;13.70;60.90;;;;;;5064672;28;20432;-69
2022/04/21 10:20:15;;;;;;;;;;;13.70;61.00;;;;;;5065381;28;19913;-68
2022/04/21 10:22:41;;;;;;;;;;;13.80;61.00;;;;;;5065130;28;20125;-69
2022/04/21 10:25:06;;;;;;;;;;;13.80;60.90;;;;;;5064910;28;19912;-69
2022/04/21 10:27:39;;;;;;;;;;;13.80;60.90;;;;;;5065378;28;19916;-69
2022/04/21 10:30:15;;;;;;;;;;;13.90;60.90;;;;;;5065352;28;20457;-69
2022/04/21 10:32:50;;;;;;;;;;;13.90;60.70;;;;;;5064174;28;19920;-69
2022/04/21 10:35:17;;;;;;;;;;;14.00;60.70;;;;;;5067526;28;19912;-69
2022/04/21 10:37:43;;;;;;;;;;;14.00;60.60;;;;;;5074123;28;20687;-69
2022/04/21 10:40:15;;;;;;;;;;;14.10;60.60;;;;;;5064342;28;19942;-69
2022/04/21 10:42:57;;;;;;;;;;;14.10;60.40;;;;;;5060338;28;20304;-69
2022/04/21 10:45:27;;;;;;;;;;;14.20;60.40;;;;;;5061801;28;19912;-69
2022/04/21 10:48:06;;;;;;;;;;;14.30;60.30;;;;;;5064968;28;19921;-69
2022/04/21 10:50:32;;;;;;;;;;;14.30;60.20;;;;;;5047574;28;19962;-69
2022/04/21 10:58:32;;;;;;;;;;;14.60;59.90;;;;;;5064677;28;19974;-69
2022/04/21 11:01:08;;;;;;;;;;;14.70;59.80;;;;;;5052805;28;20319;-68
2022/04/21 11:03:33;;;;;;;;;;;14.80;59.60;;;;;;5067049;28;19912;-68
2022/04/21 11:06:05;;;;;;;;;;;14.90;59.30;;;;;;5072677;28;19915;-68
2022/04/21 11:08:31;;;;;;;;;;;15.00;59.40;;;;;;5066144;28;19977;-68
2022/04/21 11:10:56;;;;;;;;;;;15.00;59.20;;;;;;5064228;28;19968;-68
2022/04/21 11:13:38;;;;;;;;;;;15.10;59.40;;;;;;5044122;28;20414;-68
2022/04/21 11:16:04;;;;;;;;;;;15.20;59.10;;;;;;5064162;28;19967;-68
2022/04/21 11:18:30;;;;;;;;;;;15.40;58.70;;;;;;5064108;28;19939;-68
2022/04/21 11:21:15;;;;;;;;;;;15.50;58.40;;;;;;5063837;28;19958;-68
2022/04/21 11:23:40;;;;;;;;;;;15.60;58.60;;;;;;5064173;28;19919;-68
2022/04/21 11:26:07;;;;;;;;;;;15.60;58.50;;;;;;5063578;28;19912;-68
2022/04/21 11:28:32;;;;;;;;;;;15.70;58.10;;;;;;5063095;28;20576;-68
2022/04/21 11:31:01;;;;;;;;;;;15.90;58.20;;;;;;5063724;28;19924;-68
2022/04/21 11:33:27;;;;;;;;;;;15.90;57.90;;;;;;5063253;28;19920;-68
2022/04/21 11:36:09;;;;;;;;;;;16.00;58.00;;;;;;5071160;28;19916;-68
2022/04/21 11:38:40;;;;;;;;;;;16.10;58.30;;;;;;5064322;28;19978;-68
2022/04/21 11:41:07;;;;;;;;;;;16.00;58.70;;;;;;5054719;28;20417;-68
2022/04/21 11:43:33;;;;;;;;;;;16.00;58.80;;;;;;5063949;28;20221;-68
2022/04/21 11:45:59;;;;;;;;;;;16.00;58.80;;;;;;5063290;28;19913;-68
2022/04/21 11:48:30;;;;;;;;;;;16.10;58.90;;;;;;5063604;28;19955;-68
2022/04/21 11:51:01;;;;;;;;;;;16.10;58.90;;;;;;5125424;27;19913;-69
2022/04/21 11:53:28;;;;;;;;;;;16.10;58.90;;;;;;5089244;28;20270;-69
2022/04/21 11:55:53;;;;;;;;;;;16.10;58.90;;;;;;5134534;27;20726;-69
2022/04/21 11:58:26;;;;;;;;;;;16.20;59.00;;;;;;5092195;28;19923;-68
2022/04/21 12:06:30;;;;;;;;;;;16.40;58.10;;;;;;5101036;28;19972;-69
2022/04/21 12:08:56;;;;;;;;;;;16.50;57.90;;;;;;5081659;28;20576;-68
2022/04/21 12:11:22;;;;;;;;;;;16.60;58.10;;;;;;5105014;28;19909;-68
2022/04/21 12:13:48;;;;;;;;;;;16.70;58.10;;;;;;5081443;28;19919;-68
2022/04/21 12:16:36;;;;;;;;;;;16.80;57.70;;;;;;5081753;28;19920;-68
2022/04/21 12:19:35;;;;;;;;;;;16.80;57.90;;;;;;5092412;28;19912;-68
2022/04/21 12:22:07;;;;;;;;;;;16.80;58.10;;;;;;5083615;28;19965;-68
2022/04/21 12:24:34;;;;;;;;;;;17.00;57.80;;;;;;5081822;28;19913;-68
2022/04/21 12:27:02;;;;;;;;;;;17.10;57.40;;;;;;5081933;28;19958;-68
2022/04/21 12:29:29;;;;;;;;;;;17.30;57.50;;;;;;5081617;28;21127;-68
2022/04/21 12:31:56;;;;;;;;;;;17.40;57.50;;;;;;5080265;28;20400;-68
2022/04/21 12:34:23;;;;;;;;;;;17.50;56.90;;;;;;5092018;28;19936;-68
2022/04/21 12:36:50;;;;;;;;;;;17.60;56.70;;;;;;5104138;28;20508;-68
2022/04/21 12:39:16;;;;;;;;;;;17.70;56.40;;;;;;5087541;28;19919;-68
2022/04/21 12:41:43;;;;;;;;;;;17.70;56.50;;;;;;5088733;28;19965;-68
2022/04/21 12:44:08;;;;;;;;;;;17.80;56.80;;;;;;5080815;28;20440;-68
2022/04/21 12:46:34;;;;;;;;;;;17.70;57.00;;;;;;5081259;28;19923;-68
2022/04/21 12:48:59;;;;;;;;;;;17.80;56.90;;;;;;5088550;28;19919;-68
2022/04/21 12:51:26;;;;;;;;;;;17.80;56.90;;;;;;5108512;28;20473;-69
2022/04/21 12:53:56;;;;;;;;;;;17.80;57.10;;;;;;5086897;28;20022;-69
2022/04/21 12:56:31;;;;;;;;;;;17.90;57.00;;;;;;5080427;28;19922;-68
2022/04/21 12:58:57;;;;;;;;;;;18.00;57.20;;;;;;5082254;28;19919;-68
2022/04/21 13:01:22;;;;;;;;;;;18.00;56.80;;;;;;5093325;28;19911;-68
2022/04/21 13:03:48;;;;;;;;;;;18.00;57.40;;;;;;5079486;28;19915;-69
2022/04/21 13:06:23;;;;;;;;;;;18.00;57.00;;;;;;5083366;28;19920;-68
2022/04/21 13:08:49;;;;;;;;;;;18.20;56.80;;;;;;5082371;28;19995;-68
2022/04/21 13:11:14;;;;;;;;;;;18.20;56.70;;;;;;5087341;28;20352;-68
2022/04/21 13:13:40;;;;;;;;;;;18.30;56.40;;;;;;5067261;28;19965;-68
2022/04/21 13:16:05;;;;;;;;;;;18.30;56.50;;;;;;5066896;28;19946;-69
2022/04/21 13:18:31;;;;;;;;;;;18.30;56.80;;;;;;5072460;28;19912;-68
2022/04/21 13:23:40;;;;;;;;;;;18.30;57.40;;;;;;5082237;28;19955;-69
2022/04/21 13:26:06;;;;;;;;;;;18.30;57.60;;;;;;5083198;28;19943;-68
2022/04/21 13:28:31;;;;;;;;;;;18.20;57.50;;;;;;5079333;28;19916;-69
2022/04/21 13:33:41;;;;;;;;;;;18.10;57.90;;;;;;5066737;28;20035;-68
2022/04/21 13:36:07;;;;;;;;;;;18.20;58.00;;;;;;5091835;28;20006;-68
2022/04/21 13:38:32;;;;;;;;;;;18.20;58.20;;;;;;5072409;28;19965;-69
2022/04/21 13:40:58;;;;;;;;;;;18.20;58.10;;;;;;5072272;28;19965;-68
2022/04/21 13:43:23;;;;;;;;;;;18.30;58.60;;;;;;5066789;28;20293;-69
2022/04/21 13:45:49;;;;;;;;;;;18.30;58.50;;;;;;5071695;28;20508;-68
2022/04/21 13:48:14;;;;;;;;;;;18.40;58.10;;;;;;5086768;28;19916;-68
2022/04/21 13:50:40;;;;;;;;;;;18.40;58.30;;;;;;5085744;28;19977;-69
2022/04/21 13:53:07;;;;;;;;;;;18.50;58.20;;;;;;5083127;28;20310;-68
2022/04/21 13:55:33;;;;;;;;;;;18.50;58.60;;;;;;5083165;28;19920;-68
2022/04/21 13:57:59;;;;;;;;;;;18.60;58.30;;;;;;5082718;28;19912;-68
2022/04/21 14:00:26;;;;;;;;;;;18.60;58.30;;;;;;5081317;28;19916;-69
2022/04/21 14:02:54;;;;;;;;;;;18.70;59.00;;;;;;5085899;28;19969;-68
2022/04/21 14:05:20;;;;;;;;;;;18.70;58.70;;;;;;5084512;28;20530;-68
2022/04/21 14:07:46;;;;;;;;;;;18.70;59.10;;;;;;5086371;28;19908;-69
2022/04/21 14:10:11;;;;;;;;;;;18.80;58.50;;;;;;5086812;28;19916;-69
2022/04/21 14:12:37;;;;;;;;;;;18.80;58.30;;;;;;5082800;28;19912;-69
2022/04/21 14:15:03;;;;;;;;;;;18.80;58.30;;;;;;5081274;28;19912;-69
2022/04/21 14:17:28;;;;;;;;;;;18.90;58.00;;;;;;5066918;28;20023;-68
2022/04/21 14:19:54;;;;;;;;;;;19.00;58.10;;;;;;5080449;28;19916;-69
2022/04/21 14:22:19;;;;;;;;;;;19.00;58.20;;;;;;5065778;28;19912;-68
2022/04/21 14:24:45;;;;;;;;;;;19.10;56.90;;;;;;5065335;28;19916;-69
2022/04/21 14:27:10;;;;;;;;;;;19.20;57.60;;;;;;5065242;28;19967;-68
2022/04/21 14:29:36;;;;;;;;;;;19.20;57.20;;;;;;5065521;28;19921;-69
2022/04/21 14:32:01;;;;;;;;;;;19.30;56.80;;;;;;5064539;28;20605;-68
2022/04/21 14:34:29;;;;;;;;;;;19.40;56.80;;;;;;5065790;28;20656;-69
2022/04/21 14:36:57;;;;;;;;;;;19.50;56.50;;;;;;5077967;28;19919;-69
2022/04/21 14:44:51;;;;;;;;;;;19.80;56.00;;;;;;5089637;28;19934;-69
2022/04/21 14:47:17;;;;;;;;;;;20.00;55.80;;;;;;5066136;28;19989;-68
2022/04/21 14:49:42;;;;;;;;;;;20.00;55.70;;;;;;5079973;28;19919;-69
2022/04/21 14:52:09;;;;;;;;;;;20.20;55.60;;;;;;5065463;28;20024;-69
2022/04/21 14:54:35;;;;;;;;;;;20.30;55.40;;;;;;5070611;28;20404;-69
2022/04/21 14:57:00;;;;;;;;;;;20.40;55.20;;;;;;5071174;28;19969;-69
2022/04/21 14:59:26;;;;;;;;;;;20.40;55.10;;;;;;5093648;28;20381;-69
2022/04/21 15:01:51;;;;;;;;;;;20.40;55.20;;;;;;5087357;28;19911;-69
2022/04/21 15:04:17;;;;;;;;;;;20.40;55.00;;;;;;5089626;28;19912;-69
2022/04/21 15:06:48;;;;;;;;;;;20.60;55.10;;;;;;5076193;28;19918;-69
2022/04/21 15:09:14;;;;;;;;;;;20.70;55.10;;;;;;5065052;28;19927;-69
2022/04/21 15:11:41;;;;;;;;;;;20.80;54.90;;;;;;5079711;28;19912;-69
2022/04/21 15:14:07;;;;;;;;;;;20.80;54.40;;;;;;5065005;28;19922;-68